Time;durP1;ratioP1;P1;durP2;ratioP2;P2;SDS_P1;SDS_P2;PMS_P1;PMS_P2;Temp;Humidity;BMP_temperature;BMP_pressure;BME280_temperature;BME280_humidity;BME280_pressure;Samples;Min_cycle;Max_cycle;Signal;HPM_P1;HPM_P2
2021/04/20 00:01:56;;;;;;;6.80;4.53;;;9.10;99.90;;;;;;5068905;28;20452;-82
2021/04/20 00:04:22;;;;;;;8.07;4.90;;;9.30;99.90;;;;;;5062476;28;20438;-85
2021/04/20 00:06:48;;;;;;;17.30;5.50;;;9.40;99.90;;;;;;5060339;28;20453;-82
2021/04/20 00:09:15;;;;;;;7.90;5.10;;;9.40;99.90;;;;;;5059877;28;20452;-82
2021/04/20 00:11:41;;;;;;;9.50;5.00;;;9.40;99.90;;;;;;5060543;28;20452;-82
2021/04/20 00:14:09;;;;;;;8.20;5.07;;;9.40;99.90;;;;;;5060803;28;20852;-83
2021/04/20 00:16:36;;;;;;;12.50;4.87;;;9.30;99.90;;;;;;5060990;28;20449;-82
2021/04/20 00:19:04;;;;;;;9.03;5.83;;;9.10;99.90;;;;;;5061503;28;20450;-81
2021/04/20 00:21:30;;;;;;;7.67;4.13;;;9.10;99.90;;;;;;5060503;28;20449;-82
2021/04/20 00:23:56;;;;;;;7.40;4.90;;;9.20;99.90;;;;;;5061715;28;20563;-82
2021/04/20 00:26:22;;;;;;;9.10;4.30;;;9.20;99.90;;;;;;5060097;28;20502;-82
2021/04/20 00:28:49;;;;;;;7.67;4.70;;;9.20;99.90;;;;;;5060186;28;20449;-82
2021/04/20 00:31:15;;;;;;;7.47;5.33;;;9.10;99.90;;;;;;5059425;28;20481;-81
2021/04/20 00:33:42;;;;;;;11.60;6.00;;;9.10;99.90;;;;;;5060791;28;20463;-81
2021/04/20 00:36:09;;;;;;;8.60;4.90;;;9.00;99.90;;;;;;5072391;28;20503;-81
2021/04/20 00:38:36;;;;;;;6.03;4.00;;;8.90;99.90;;;;;;5072311;28;20445;-83
2021/04/20 00:41:04;;;;;;;8.73;5.40;;;8.90;99.90;;;;;;5060564;28;20477;-82
2021/04/20 00:43:36;;;;;;;11.47;4.80;;;8.90;99.90;;;;;;5065261;28;20447;-81
2021/04/20 00:46:05;;;;;;;8.67;5.60;;;8.90;99.90;;;;;;5073948;28;20431;-80
2021/04/20 00:48:31;;;;;;;9.57;5.80;;;8.60;99.90;;;;;;5075291;28;20424;-79
2021/04/20 00:50:58;;;;;;;7.40;6.10;;;8.90;99.90;;;;;;5060568;28;20441;-82
2021/04/20 00:53:25;;;;;;;14.07;7.17;;;9.10;99.90;;;;;;5060622;28;20481;-83
2021/04/20 00:55:51;;;;;;;8.80;6.10;;;9.00;99.90;;;;;;5063479;28;20450;-82
2021/04/20 00:58:17;;;;;;;12.00;6.67;;;9.00;99.90;;;;;;5060151;28;20450;-82
2021/04/20 01:00:44;;;;;;;7.23;5.50;;;9.10;99.90;;;;;;5059207;28;20822;-82
2021/04/20 01:03:10;;;;;;;9.37;6.30;;;9.10;99.90;;;;;;5059082;28;20508;-83
2021/04/20 01:05:38;;;;;;;9.17;5.00;;;9.10;99.90;;;;;;5062344;28;20449;-82
2021/04/20 01:08:07;;;;;;;10.00;5.70;;;9.10;99.90;;;;;;5065229;28;20787;-82
2021/04/20 01:10:34;;;;;;;9.50;5.07;;;9.00;99.90;;;;;;5061371;28;20972;-82
2021/04/20 01:13:02;;;;;;;11.23;5.90;;;9.00;99.90;;;;;;5062879;28;20898;-82
2021/04/20 01:15:29;;;;;;;5.90;5.07;;;9.00;99.90;;;;;;5068335;28;20972;-81
2021/04/20 01:17:55;;;;;;;8.23;6.13;;;9.00;99.90;;;;;;5070038;28;20439;-83
2021/04/20 01:20:22;;;;;;;7.60;4.93;;;9.00;99.90;;;;;;5071746;28;20448;-83
2021/04/20 01:22:48;;;;;;;9.83;5.30;;;9.00;99.90;;;;;;5071942;28;20462;-81
2021/04/20 01:25:16;;;;;;;13.23;5.50;;;8.70;99.90;;;;;;5072033;28;20449;-82
2021/04/20 01:27:43;;;;;;;10.47;5.40;;;8.70;99.90;;;;;;5070230;28;20448;-81
2021/04/20 01:30:12;;;;;;;6.17;4.90;;;8.60;99.90;;;;;;5070784;28;20451;-84
2021/04/20 01:32:39;;;;;;;11.57;5.63;;;8.60;99.90;;;;;;5069830;28;20481;-80
2021/04/20 01:35:08;;;;;;;12.50;5.77;;;8.70;99.90;;;;;;5063378;28;20477;-81
2021/04/20 01:37:35;;;;;;;11.97;6.70;;;8.50;99.90;;;;;;5062018;28;20476;-81
2021/04/20 01:40:01;;;;;;;9.97;5.80;;;8.40;99.90;;;;;;5059612;28;20439;-81
2021/04/20 01:42:29;;;;;;;11.68;6.18;;;8.50;99.90;;;;;;5059426;28;20459;-81
2021/04/20 01:44:55;;;;;;;11.07;5.80;;;8.60;99.90;;;;;;5058735;28;20183;-80
2021/04/20 01:47:21;;;;;;;11.20;5.87;;;8.60;99.90;;;;;;5058174;28;20453;-80
2021/04/20 01:49:47;;;;;;;8.43;6.33;;;8.40;99.90;;;;;;5057898;28;20453;-81
2021/04/20 01:52:15;;;;;;;13.33;6.00;;;8.40;99.90;;;;;;5058919;28;20448;-82
2021/04/20 01:54:41;;;;;;;14.27;6.32;;;8.40;99.90;;;;;;5059753;28;20442;-82
2021/04/20 01:57:09;;;;;;;11.13;5.88;;;8.60;99.90;;;;;;5063151;28;20199;-81
2021/04/20 01:59:36;;;;;;;10.23;6.30;;;8.40;99.90;;;;;;5061030;28;20238;-82
2021/04/20 02:02:03;;;;;;;21.88;6.68;;;8.10;99.90;;;;;;5059727;28;20948;-82
2021/04/20 02:04:29;;;;;;;9.90;5.87;;;8.30;99.90;;;;;;5059046;28;20198;-82
2021/04/20 02:06:56;;;;;;;11.10;5.97;;;8.20;99.90;;;;;;5057665;28;20453;-83
2021/04/20 02:09:22;;;;;;;10.80;6.38;;;8.10;99.90;;;;;;5058193;28;20887;-83
2021/04/20 02:11:48;;;;;;;8.80;5.70;;;7.90;99.90;;;;;;5057784;28;20214;-82
2021/04/20 02:14:14;;;;;;;11.60;6.50;;;8.20;99.90;;;;;;5058057;28;20250;-82
2021/04/20 02:16:42;;;;;;;8.93;5.43;;;8.40;99.90;;;;;;5061378;28;20450;-83
2021/04/20 02:19:12;;;;;;;9.57;5.90;;;8.00;99.90;;;;;;5065125;28;20446;-81
2021/04/20 02:21:39;;;;;;;9.60;5.60;;;8.10;99.90;;;;;;5062806;28;20519;-81
2021/04/20 02:24:07;;;;;;;9.07;6.20;;;8.10;99.90;;;;;;5061544;28;20436;-80
2021/04/20 02:26:36;;;;;;;11.10;5.80;;;8.10;99.90;;;;;;5073685;28;20449;-80
2021/04/20 02:29:05;;;;;;;11.57;6.65;;;8.10;99.90;;;;;;5073894;28;20448;-81
2021/04/20 02:31:33;;;;;;;8.85;5.97;;;8.10;99.90;;;;;;5073747;28;20277;-81
2021/04/20 02:34:03;;;;;;;13.70;6.20;;;8.10;99.90;;;;;;5074038;28;20360;-81
2021/04/20 02:36:30;;;;;;;7.80;6.47;;;8.10;99.90;;;;;;5077195;28;20454;-81
2021/04/20 02:38:56;;;;;;;8.68;6.15;;;8.40;99.90;;;;;;5077750;28;20496;-80
2021/04/20 02:41:25;;;;;;;6.30;5.43;;;8.20;99.90;;;;;;5077482;28;20183;-81
2021/04/20 02:43:52;;;;;;;10.82;5.35;;;7.70;99.90;;;;;;5077687;28;20531;-81
2021/04/20 02:46:18;;;;;;;10.27;6.20;;;8.00;99.90;;;;;;5078240;28;20194;-82
2021/04/20 02:48:45;;;;;;;11.93;6.55;;;8.10;99.90;;;;;;5078292;28;20433;-83
2021/04/20 02:51:13;;;;;;;11.68;6.85;;;8.10;99.90;;;;;;5077484;28;20187;-82
2021/04/20 02:53:41;;;;;;;12.63;6.17;;;8.30;99.90;;;;;;5074924;28;20230;-82
2021/04/20 02:56:09;;;;;;;8.95;6.45;;;8.20;99.90;;;;;;5071441;28;20426;-82
2021/04/20 02:58:36;;;;;;;8.47;5.83;;;8.20;99.90;;;;;;5071048;28;20203;-81
2021/04/20 03:01:05;;;;;;;15.40;8.00;;;8.10;99.90;;;;;;5072513;28;20453;-82
2021/04/20 03:03:36;;;;;;;13.77;6.07;;;8.10;99.90;;;;;;5061618;28;20269;-82
2021/04/20 03:06:03;;;;;;;7.22;5.93;;;8.20;99.90;;;;;;5058345;28;20397;-82
2021/04/20 03:08:31;;;;;;;11.53;6.27;;;8.20;99.90;;;;;;5057783;28;20685;-82
2021/04/20 03:11:00;;;;;;;15.48;6.80;;;8.10;99.90;;;;;;5058518;28;20441;-82
2021/04/20 03:13:26;;;;;;;9.52;6.07;;;7.90;99.90;;;;;;5057615;28;20242;-82
2021/04/20 03:15:56;;;;;;;12.80;7.28;;;7.90;99.90;;;;;;5057868;28;20206;-84
2021/04/20 03:18:23;;;;;;;10.27;6.20;;;7.80;99.90;;;;;;5057652;28;20214;-83
2021/04/20 03:20:49;;;;;;;9.45;6.57;;;7.80;99.90;;;;;;5058383;28;20451;-81
2021/04/20 03:23:15;;;;;;;12.88;6.70;;;7.80;99.90;;;;;;5060348;28;20215;-80
2021/04/20 03:25:42;;;;;;;12.55;7.00;;;7.80;99.90;;;;;;5063966;28;20443;-83
2021/04/20 03:28:09;;;;;;;10.52;6.80;;;7.80;99.90;;;;;;5059342;28;20443;-82
2021/04/20 03:30:35;;;;;;;14.38;6.93;;;7.90;99.90;;;;;;5057938;28;20438;-83
2021/04/20 03:33:09;;;;;;;10.80;6.97;;;7.70;99.90;;;;;;5058820;28;20543;-81
2021/04/20 03:35:45;;;;;;;10.68;6.50;;;7.70;99.90;;;;;;5057432;28;20187;-83
2021/04/20 03:38:18;;;;;;;12.33;7.20;;;7.80;99.90;;;;;;5056936;28;20432;-81
2021/04/20 03:40:50;;;;;;;13.13;7.18;;;7.60;99.90;;;;;;5066092;28;20426;-81
2021/04/20 03:43:19;;;;;;;9.90;7.18;;;7.70;99.90;;;;;;5079856;22;20239;-78
2021/04/20 03:45:50;;;;;;;13.68;7.80;;;7.80;99.90;;;;;;5057339;28;20679;-79
2021/04/20 03:48:19;;;;;;;11.45;8.40;;;7.60;99.90;;;;;;5059004;28;20186;-79
2021/04/20 03:50:57;;;;;;;13.02;7.43;;;7.90;99.90;;;;;;5057979;28;20233;-78
2021/04/20 03:53:25;;;;;;;9.18;6.55;;;7.50;99.90;;;;;;5057915;28;20272;-78
2021/04/20 03:55:53;;;;;;;12.80;8.10;;;7.40;99.90;;;;;;5058699;28;20207;-79
2021/04/20 03:58:22;;;;;;;11.32;7.35;;;7.30;99.90;;;;;;5057416;28;20231;-78
2021/04/20 04:00:52;;;;;;;10.77;6.88;;;7.30;99.90;;;;;;5057689;28;20207;-80
2021/04/20 04:03:21;;;;;;;8.35;7.32;;;7.30;99.90;;;;;;5058737;28;20273;-79
2021/04/20 04:05:48;;;;;;;13.10;8.85;;;7.30;99.90;;;;;;5058261;28;20210;-78
2021/04/20 04:08:16;;;;;;;16.10;6.97;;;7.30;99.90;;;;;;5060061;28;20760;-78
2021/04/20 04:10:44;;;;;;;8.15;6.97;;;7.40;99.90;;;;;;5058788;28;20227;-78
2021/04/20 04:13:13;;;;;;;9.85;7.45;;;7.00;99.90;;;;;;5057481;28;20223;-78
2021/04/20 04:15:41;;;;;;;17.23;8.45;;;7.20;99.90;;;;;;5056356;28;20490;-78
2021/04/20 04:18:10;;;;;;;12.68;8.80;;;7.30;99.90;;;;;;5057505;28;20674;-79
2021/04/20 04:20:36;;;;;;;13.98;8.23;;;7.30;99.90;;;;;;5057392;28;20675;-78
2021/04/20 04:23:06;;;;;;;11.48;7.20;;;7.30;99.90;;;;;;5057188;28;20237;-79
2021/04/20 04:25:34;;;;;;;13.20;7.45;;;7.30;99.90;;;;;;5058296;28;20199;-79
2021/04/20 04:28:04;;;;;;;15.60;8.10;;;7.20;99.90;;;;;;5057692;28;20229;-79
2021/04/20 04:30:31;;;;;;;14.25;9.27;;;7.10;99.90;;;;;;5057400;28;20187;-79
2021/04/20 04:32:58;;;;;;;22.88;10.23;;;7.10;99.90;;;;;;5056103;28;20234;-79
2021/04/20 04:35:25;;;;;;;23.45;12.35;;;7.20;99.90;;;;;;5058206;28;20572;-79
2021/04/20 04:37:52;;;;;;;11.25;8.73;;;7.20;99.90;;;;;;5057556;28;20231;-79
2021/04/20 04:40:20;;;;;;;13.65;7.80;;;7.20;99.90;;;;;;5059325;28;20233;-78
2021/04/20 04:42:46;;;;;;;13.18;8.15;;;7.20;99.90;;;;;;5062408;28;20720;-78
2021/04/20 04:45:13;;;;;;;14.25;9.10;;;8.10;99.90;;;;;;5061694;28;20192;-79
2021/04/20 04:47:41;;;;;;;16.30;8.40;;;7.10;99.90;;;;;;5058782;28;20206;-79
2021/04/20 04:50:09;;;;;;;14.07;8.32;;;7.20;99.90;;;;;;5056879;28;20233;-78
2021/04/20 04:52:35;;;;;;;14.60;8.55;;;7.10;99.90;;;;;;5055908;28;20238;-78
2021/04/20 04:55:03;;;;;;;13.80;8.05;;;7.10;99.90;;;;;;5055998;28;20582;-78
2021/04/20 04:57:31;;;;;;;15.18;9.30;;;7.30;99.90;;;;;;5058841;28;20225;-78
2021/04/20 05:00:00;;;;;;;23.35;9.00;;;7.20;99.90;;;;;;5059031;28;20211;-78
2021/04/20 05:02:27;;;;;;;14.38;7.80;;;7.30;99.90;;;;;;5059133;28;20202;-78
2021/04/20 05:04:55;;;;;;;11.20;8.18;;;7.60;99.90;;;;;;5056879;28;20195;-78
2021/04/20 05:07:23;;;;;;;12.77;8.18;;;7.60;99.90;;;;;;5057219;28;20615;-78
2021/04/20 05:09:50;;;;;;;17.08;7.40;;;7.40;99.90;;;;;;5057458;28;20733;-78
2021/04/20 05:12:19;;;;;;;12.23;8.05;;;7.00;99.90;;;;;;5058086;28;20214;-78
2021/04/20 05:14:45;;;;;;;15.40;8.30;;;7.00;99.90;;;;;;5057718;28;20273;-78
2021/04/20 05:17:12;;;;;;;11.73;8.00;;;7.50;99.90;;;;;;5056937;28;20199;-78
2021/04/20 05:19:41;;;;;;;14.27;7.68;;;7.10;99.90;;;;;;5056562;28;20207;-78
2021/04/20 05:22:09;;;;;;;10.50;7.57;;;7.10;99.90;;;;;;5056569;28;20591;-80
2021/04/20 05:24:35;;;;;;;11.63;6.88;;;7.20;99.90;;;;;;5056768;28;20297;-78
2021/04/20 05:27:02;;;;;;;12.23;8.23;;;7.20;99.90;;;;;;5057888;28;20203;-79
2021/04/20 05:29:28;;;;;;;11.55;7.50;;;7.60;99.90;;;;;;5057455;28;20210;-79
2021/04/20 05:31:55;;;;;;;13.98;8.40;;;7.40;99.90;;;;;;5058233;28;20230;-78
2021/04/20 05:34:22;;;;;;;14.70;8.70;;;7.30;99.90;;;;;;5055729;28;20674;-78
2021/04/20 05:36:49;;;;;;;18.90;8.40;;;7.20;99.90;;;;;;5056611;28;20230;-78
2021/04/20 05:39:18;;;;;;;10.93;7.20;;;7.40;99.90;;;;;;5057054;28;20233;-78
2021/04/20 05:41:44;;;;;;;11.88;8.43;;;7.30;99.90;;;;;;5059931;28;20202;-79
2021/04/20 05:44:12;;;;;;;17.27;9.63;;;7.40;99.90;;;;;;5063136;28;20273;-78
2021/04/20 05:46:40;;;;;;;15.88;8.32;;;7.50;99.90;;;;;;5058318;28;20706;-78
2021/04/20 05:49:08;;;;;;;23.65;8.70;;;7.30;99.90;;;;;;5060736;28;20207;-78
2021/04/20 05:51:36;;;;;;;18.30;8.55;;;7.50;99.90;;;;;;5063123;28;20207;-78
2021/04/20 05:54:03;;;;;;;14.40;8.82;;;7.50;99.90;;;;;;5063121;28;20223;-78
2021/04/20 05:56:30;;;;;;;18.80;9.48;;;7.60;99.90;;;;;;5060591;28;20206;-79
2021/04/20 05:58:58;;;;;;;16.55;8.73;;;7.70;99.90;;;;;;5060291;28;20670;-79
2021/04/20 06:01:26;;;;;;;16.63;9.23;;;7.80;99.90;;;;;;5057547;28;20613;-79
2021/04/20 06:03:53;;;;;;;15.38;8.45;;;7.80;99.90;;;;;;5056516;28;20269;-79
2021/04/20 06:06:21;;;;;;;9.25;7.45;;;7.70;99.90;;;;;;5056111;28;20542;-79
2021/04/20 06:08:50;;;;;;;16.45;9.40;;;8.20;99.90;;;;;;5058983;28;20214;-78
2021/04/20 06:11:17;;;;;;;24.50;8.33;;;7.60;99.90;;;;;;5056049;28;20207;-78
2021/04/20 06:13:45;;;;;;;11.77;7.70;;;7.80;99.90;;;;;;5059315;28;20473;-78
2021/04/20 06:16:12;;;;;;;13.10;8.87;;;8.00;99.90;;;;;;5060434;28;20222;-78
2021/04/20 06:18:39;;;;;;;15.27;8.97;;;8.00;99.90;;;;;;5056937;28;20947;-78
2021/04/20 06:21:06;;;;;;;14.80;9.67;;;8.10;99.90;;;;;;5056217;28;20427;-78
2021/04/20 06:23:33;;;;;;;12.17;8.53;;;8.30;99.90;;;;;;5056150;28;20544;-79
2021/04/20 06:26:02;;;;;;;14.33;9.43;;;8.30;99.90;;;;;;5056813;28;20449;-78
2021/04/20 06:28:30;;;;;;;13.07;9.97;;;8.50;99.90;;;;;;5056357;28;20930;-78
2021/04/20 06:30:58;;;;;;;13.93;7.80;;;8.70;99.90;;;;;;5056377;28;20464;-80
2021/04/20 06:33:25;;;;;;;12.93;9.18;;;8.70;99.90;;;;;;5055804;28;20227;-78
2021/04/20 06:35:52;;;;;;;17.07;9.23;;;8.60;99.90;;;;;;5056813;28;20652;-78
2021/04/20 06:38:18;;;;;;;16.80;8.90;;;8.60;99.90;;;;;;5056694;28;20400;-78
2021/04/20 06:40:47;;;;;;;24.30;13.47;;;8.70;99.90;;;;;;5056764;28;20445;-78
2021/04/20 06:43:15;;;;;;;18.53;9.47;;;8.80;99.90;;;;;;5059918;28;20496;-78
2021/04/20 06:45:46;;;;;;;16.80;9.10;;;8.80;99.90;;;;;;5062846;28;20428;-78
2021/04/20 06:48:25;;;;;;;14.23;10.50;;;8.80;99.90;;;;;;5062929;28;20412;-78
2021/04/20 06:50:56;;;;;;;13.30;10.50;;;9.10;99.90;;;;;;5063727;28;20449;-78
2021/04/20 06:53:26;;;;;;;12.03;9.00;;;9.00;99.90;;;;;;5063259;28;20555;-78
2021/04/20 06:56:03;;;;;;;18.50;9.97;;;9.00;99.90;;;;;;5062906;28;20433;-78
2021/04/20 06:58:36;;;;;;;14.50;10.13;;;9.10;99.90;;;;;;5062541;28;20908;-78
2021/04/20 07:01:06;;;;;;;14.50;8.90;;;9.40;99.90;;;;;;5062676;28;20450;-78
2021/04/20 07:03:40;;;;;;;19.90;9.27;;;9.50;99.90;;;;;;5054709;28;20535;-78
2021/04/20 07:06:09;;;;;;;15.20;10.40;;;9.60;99.90;;;;;;5056145;28;20404;-78
2021/04/20 07:08:43;;;;;;;12.50;9.00;;;9.80;99.90;;;;;;5053874;28;20477;-78
2021/04/20 07:11:12;;;;;;;18.87;9.97;;;10.00;99.90;;;;;;5056168;28;20500;-78
2021/04/20 07:13:42;;;;;;;12.40;9.20;;;10.00;99.90;;;;;;5055015;28;20493;-79
2021/04/20 07:16:19;;;;;;;14.93;9.30;;;10.00;99.90;;;;;;5056125;28;20415;-79
2021/04/20 07:19:02;;;;;;;18.10;10.20;;;9.70;99.90;;;;;;5059931;28;20421;-78
2021/04/20 07:21:54;;;;;;;17.93;9.20;;;10.10;99.90;;;;;;5059465;28;20492;-78
2021/04/20 07:24:22;;;;;;;13.40;10.17;;;10.30;99.90;;;;;;5059799;28;20457;-78
2021/04/20 07:26:56;;;;;;;16.23;11.67;;;10.30;99.90;;;;;;5058831;28;20445;-78
2021/04/20 07:29:51;;;;;;;17.90;12.23;;;10.40;99.90;;;;;;5060974;28;20904;-77
2021/04/20 07:32:32;;;;;;;21.80;11.30;;;10.40;99.90;;;;;;5061894;28;20430;-77
2021/04/20 07:35:11;;;;;;;16.30;10.67;;;10.40;99.90;;;;;;5058578;28;20851;-77
2021/04/20 07:37:42;;;;;;;23.00;13.43;;;10.40;99.90;;;;;;5063393;28;20811;-78
2021/04/20 07:40:32;;;;;;;13.57;10.10;;;10.50;99.90;;;;;;5061881;28;20437;-78
2021/04/20 07:43:11;;;;;;;12.53;9.27;;;10.60;99.90;;;;;;5058997;28;20484;-78
2021/04/20 07:45:46;;;;;;;15.20;9.60;;;10.70;99.90;;;;;;5059424;28;20460;-78
2021/04/20 07:48:21;;;;;;;16.77;10.90;;;11.00;99.90;;;;;;5058949;28;20400;-78
2021/04/20 07:50:54;;;;;;;16.30;9.00;;;11.00;99.90;;;;;;5059152;28;20437;-79
2021/04/20 07:53:30;;;;;;;16.03;11.67;;;11.00;99.90;;;;;;5059103;28;20484;-79
2021/04/20 07:56:02;;;;;;;19.53;12.00;;;11.00;99.90;;;;;;5060042;28;20456;-78
2021/04/20 07:58:34;;;;;;;19.47;11.00;;;11.00;99.90;;;;;;5060974;28;20523;-78
2021/04/20 08:01:07;;;;;;;18.97;10.13;;;11.10;99.90;;;;;;5059154;28;20430;-78
2021/04/20 08:03:44;;;;;;;16.77;10.23;;;11.20;99.90;;;;;;5058192;28;20443;-78
2021/04/20 08:06:16;;;;;;;13.33;9.90;;;11.50;99.90;;;;;;5058959;28;20425;-78
2021/04/20 08:08:47;;;;;;;16.30;11.60;;;11.20;99.90;;;;;;5058064;28;20449;-78
2021/04/20 08:11:21;;;;;;;17.53;10.20;;;11.20;99.90;;;;;;5058006;28;20514;-78
2021/04/20 08:13:51;;;;;;;20.70;10.90;;;11.20;99.90;;;;;;5058459;28;20554;-78
2021/04/20 08:16:25;;;;;;;17.13;10.50;;;11.30;99.90;;;;;;5058285;28;20469;-78
2021/04/20 08:18:57;;;;;;;14.27;10.00;;;11.60;99.90;;;;;;5058881;28;20433;-78
2021/04/20 08:21:30;;;;;;;16.27;10.73;;;11.60;99.90;;;;;;5057650;28;20420;-78
2021/04/20 08:23:57;;;;;;;16.37;9.90;;;11.50;99.90;;;;;;5059880;28;20857;-78
2021/04/20 08:26:27;;;;;;;15.87;10.30;;;11.60;99.90;;;;;;5061585;28;20449;-78
2021/04/20 08:28:58;;;;;;;16.17;10.63;;;11.80;99.90;;;;;;5057222;28;20971;-78
2021/04/20 08:31:33;;;;;;;13.33;10.40;;;11.80;99.90;;;;;;5058543;28;20807;-79
2021/04/20 08:34:05;;;;;;;12.03;10.30;;;12.10;99.90;;;;;;5057227;28;20467;-78
2021/04/20 08:36:52;;;;;;;12.00;8.53;;;11.80;99.90;;;;;;5058093;28;20936;-79
2021/04/20 08:39:22;;;;;;;23.27;10.30;;;12.00;99.90;;;;;;5066367;28;20495;-78
2021/04/20 08:42:00;;;;;;;9.43;8.43;;;11.90;99.90;;;;;;5074245;28;20452;-78
2021/04/20 08:44:33;;;;;;;13.00;9.70;;;12.00;99.90;;;;;;5072833;28;20440;-78
2021/04/20 08:47:04;;;;;;;13.60;8.30;;;12.00;99.90;;;;;;5066950;28;20400;-79
2021/04/20 08:49:41;;;;;;;13.87;8.70;;;12.10;99.90;;;;;;5059993;28;20939;-78
2021/04/20 08:52:19;;;;;;;11.63;8.20;;;12.30;99.90;;;;;;5060579;28;20429;-78
2021/04/20 08:55:04;;;;;;;16.23;8.70;;;12.60;99.90;;;;;;5058693;28;20465;-79
2021/04/20 08:57:43;;;;;;;13.60;9.20;;;12.30;99.90;;;;;;5058975;28;20838;-78
2021/04/20 09:00:14;;;;;;;14.47;10.20;;;12.40;99.90;;;;;;5058346;28;20465;-78
2021/04/20 09:03:06;;;;;;;11.50;7.93;;;12.80;99.90;;;;;;5058656;28;20813;-80
2021/04/20 09:05:37;;;;;;;11.57;9.47;;;12.80;99.90;;;;;;5059199;28;20437;-78
2021/04/20 09:08:32;;;;;;;16.23;8.80;;;13.30;99.90;;;;;;5055841;28;20454;-79
2021/04/20 09:11:07;;;;;;;13.53;9.00;;;12.60;99.90;;;;;;5056124;28;20442;-79
2021/04/20 09:13:41;;;;;;;9.70;8.37;;;13.10;99.90;;;;;;5057835;28;20485;-78
2021/04/20 09:16:12;;;;;;;12.30;8.87;;;13.30;99.90;;;;;;5060139;28;20429;-78
2021/04/20 09:18:42;;;;;;;10.83;9.27;;;13.00;99.90;;;;;;5060431;28;20422;-78
2021/04/20 09:21:13;;;;;;;11.93;8.90;;;13.10;99.90;;;;;;5056092;28;20434;-78
2021/04/20 09:23:49;;;;;;;26.20;9.10;;;13.20;99.90;;;;;;5059177;28;20472;-79
2021/04/20 09:26:28;;;;;;;12.23;8.83;;;13.40;99.90;;;;;;5062160;28;20460;-78
2021/04/20 09:29:00;;;;;;;11.20;8.87;;;13.20;99.90;;;;;;5057593;28;20438;-79
2021/04/20 09:31:33;;;;;;;22.47;9.53;;;13.20;99.90;;;;;;5058579;28;20437;-78
2021/04/20 09:34:01;;;;;;;12.30;9.27;;;13.20;99.90;;;;;;5059966;28;20512;-78
2021/04/20 09:36:28;;;;;;;21.50;11.23;;;13.80;99.90;;;;;;5060940;28;20514;-79
2021/04/20 09:38:57;;;;;;;13.23;8.53;;;13.40;99.90;;;;;;5060893;28;20860;-78
2021/04/20 09:41:27;;;;;;;15.73;9.40;;;13.40;99.90;;;;;;5060538;28;20495;-78
2021/04/20 09:44:04;;;;;;;20.30;9.00;;;13.60;99.90;;;;;;5084900;22;20500;-77
2021/04/20 09:46:33;;;;;;;15.03;10.00;;;13.60;99.90;;;;;;5064720;28;20396;-80
2021/04/20 09:49:07;;;;;;;16.30;9.53;;;13.80;99.90;;;;;;5064060;28;20437;-78
2021/04/20 09:51:43;;;;;;;16.27;9.03;;;13.80;99.90;;;;;;5064025;28;20456;-79
2021/04/20 09:54:17;;;;;;;12.43;9.40;;;13.80;99.90;;;;;;5060741;28;20480;-78
2021/04/20 09:56:46;;;;;;;15.23;8.73;;;13.80;99.90;;;;;;5064961;28;20430;-77
2021/04/20 09:59:16;;;;;;;19.13;10.40;;;14.00;99.90;;;;;;5065776;28;20476;-78
2021/04/20 10:01:52;;;;;;;14.83;9.77;;;14.10;99.90;;;;;;5064725;28;20496;-77
2021/04/20 10:04:33;;;;;;;15.23;9.83;;;14.20;99.90;;;;;;5064864;28;20468;-78
2021/04/20 10:07:20;;;;;;;9.37;8.13;;;14.10;99.90;;;;;;5062615;28;20434;-78
2021/04/20 10:09:55;;;;;;;14.87;10.20;;;13.90;99.90;;;;;;5021735;28;20442;-78
2021/04/20 10:12:29;;;;;;;9.93;8.73;;;14.20;99.90;;;;;;5060802;28;20767;-77
2021/04/20 10:15:03;;;;;;;14.53;9.13;;;14.10;99.90;;;;;;5062295;28;20587;-79
2021/04/20 10:17:36;;;;;;;14.90;9.70;;;14.30;99.90;;;;;;5062151;28;20488;-78
2021/04/20 10:20:10;;;;;;;15.03;10.73;;;14.30;99.90;;;;;;5062689;28;20802;-78
2021/04/20 10:22:46;;;;;;;15.80;8.73;;;14.50;99.90;;;;;;5060124;28;20429;-77
2021/04/20 10:25:20;;;;;;;28.83;18.43;;;14.60;99.90;;;;;;5058823;28;20421;-77
2021/04/20 10:27:51;;;;;;;19.63;10.17;;;14.70;99.90;;;;;;5056453;28;20525;-77
2021/04/20 10:30:19;;;;;;;14.43;10.13;;;14.60;99.90;;;;;;5057921;28;20430;-77
2021/04/20 10:32:50;;;;;;;14.10;11.67;;;14.70;99.90;;;;;;5060323;28;20442;-77
2021/04/20 10:35:19;;;;;;;14.97;9.97;;;14.70;99.90;;;;;;5059449;28;20461;-77
2021/04/20 10:37:47;;;;;;;11.87;8.63;;;14.80;99.90;;;;;;5060472;28;20450;-78
2021/04/20 10:40:17;;;;;;;14.33;9.73;;;15.10;99.90;;;;;;5059005;28;20994;-77
2021/04/20 10:42:48;;;;;;;12.67;8.60;;;15.10;99.90;;;;;;5059499;28;20449;-77
2021/04/20 10:45:15;;;;;;;12.20;9.43;;;14.90;99.90;;;;;;5059118;28;20487;-78
2021/04/20 10:47:47;;;;;;;13.80;8.90;;;15.10;99.90;;;;;;5057926;28;20446;-77
2021/04/20 10:50:20;;;;;;;17.73;9.73;;;15.20;99.90;;;;;;5059514;28;20425;-78
2021/04/20 10:52:47;;;;;;;9.40;8.30;;;;;;;;;;5059393;28;20468;-77
2021/04/20 10:55:16;;;;;;;18.03;8.90;;;15.50;99.90;;;;;;5058946;28;20473;-78
2021/04/20 10:57:47;;;;;;;14.40;8.77;;;15.50;99.90;;;;;;5059456;28;20464;-77
2021/04/20 11:00:15;;;;;;;13.63;9.07;;;15.50;99.90;;;;;;5059349;28;20433;-79
2021/04/20 11:02:44;;;;;;;13.33;10.00;;;15.50;99.90;;;;;;5058711;28;20797;-77
2021/04/20 11:05:15;;;;;;;10.77;8.70;;;15.30;99.90;;;;;;5058831;28;20461;-78
2021/04/20 11:07:43;;;;;;;16.83;10.40;;;15.30;99.90;;;;;;5060047;28;20457;-78
2021/04/20 11:10:12;;;;;;;14.50;9.57;;;15.30;99.90;;;;;;5058923;28;20460;-79
2021/04/20 11:12:42;;;;;;;13.90;9.13;;;15.40;99.90;;;;;;5060091;28;20460;-78
2021/04/20 11:15:09;;;;;;;13.10;9.10;;;15.40;99.90;;;;;;5059772;28;20865;-79
2021/04/20 11:17:47;;;;;;;14.93;10.77;;;15.50;99.90;;;;;;5058639;28;20449;-79
2021/04/20 11:20:17;;;;;;;15.90;10.10;;;15.70;99.90;;;;;;5059512;28;20457;-80
2021/04/20 11:22:49;;;;;;;19.73;10.30;;;15.70;99.90;;;;;;5058648;28;20852;-79
2021/04/20 11:25:24;;;;;;;14.20;10.23;;;15.80;99.90;;;;;;5060444;28;20430;-79
2021/04/20 11:27:56;;;;;;;13.10;8.90;;;15.80;99.90;;;;;;5061510;28;20855;-79
2021/04/20 11:30:28;;;;;;;19.07;10.67;;;15.80;99.90;;;;;;5061881;28;20434;-78
2021/04/20 11:32:56;;;;;;;16.77;9.87;;;15.40;99.90;;;;;;5061778;28;20434;-78
2021/04/20 11:35:23;;;;;;;13.40;9.50;;;15.60;99.90;;;;;;5060688;28;20847;-79
2021/04/20 11:37:56;;;;;;;10.83;8.33;;;15.80;99.90;;;;;;5059563;28;20511;-79
2021/04/20 11:40:29;;;;;;;14.60;9.60;;;16.00;99.90;;;;;;5062966;28;20778;-78
2021/04/20 11:42:57;;;;;;;14.37;9.60;;;16.10;99.90;;;;;;5063624;28;20440;-79
2021/04/20 11:45:27;;;;;;;12.40;8.73;;;16.10;99.90;;;;;;5066263;28;20422;-78
2021/04/20 11:48:03;;;;;;;14.40;8.80;;;16.10;99.90;;;;;;5063440;28;20445;-78
2021/04/20 11:50:33;;;;;;;11.70;7.87;;;16.20;99.90;;;;;;5061280;28;20495;-79
2021/04/20 11:53:01;;;;;;;10.90;8.87;;;16.20;99.90;;;;;;5062147;28;20442;-79
2021/04/20 11:55:33;;;;;;;11.63;8.40;;;16.50;99.90;;;;;;5062011;28;20473;-79
2021/04/20 11:58:05;;;;;;;17.17;9.33;;;16.40;99.90;;;;;;5060909;28;20445;-79
2021/04/20 12:00:34;;;;;;;16.17;10.70;;;16.50;99.90;;;;;;5060759;28;20460;-78
2021/04/20 12:03:09;;;;;;;13.00;9.93;;;16.70;99.90;;;;;;5060563;28;20445;-78
2021/04/20 12:05:36;;;;;;;14.83;10.93;;;16.50;99.90;;;;;;5064531;28;20417;-79
2021/04/20 12:08:05;;;;;;;11.23;8.30;;;16.30;99.90;;;;;;5064454;28;20860;-79
2021/04/20 12:10:32;;;;;;;12.20;9.23;;;16.60;99.90;;;;;;5066329;28;20449;-78
2021/04/20 12:12:59;;;;;;;15.60;8.90;;;16.70;99.90;;;;;;5067640;28;20442;-78
2021/04/20 12:15:28;;;;;;;13.70;10.10;;;16.80;99.90;;;;;;5067486;28;21053;-79
2021/04/20 12:17:55;;;;;;;15.70;10.00;;;16.90;99.90;;;;;;5068844;28;20451;-79
2021/04/20 12:20:26;;;;;;;18.03;8.50;;;17.00;99.90;;;;;;5069882;28;20445;-78
2021/04/20 12:22:54;;;;;;;14.50;10.40;;;17.40;99.90;;;;;;5075835;28;20445;-78
2021/04/20 12:25:21;;;;;;;13.67;9.57;;;17.10;99.90;;;;;;5071728;28;20434;-78
2021/04/20 12:27:51;;;;;;;14.90;10.47;;;17.10;99.90;;;;;;5069831;28;20437;-77
2021/04/20 12:30:20;;;;;;;12.97;9.70;;;17.10;99.90;;;;;;5069463;28;20426;-77
2021/04/20 12:32:47;;;;;;;13.70;9.37;;;17.10;99.90;;;;;;5070845;28;20461;-78
2021/04/20 12:35:14;;;;;;;14.10;9.87;;;17.10;99.90;;;;;;5065226;28;20500;-79
2021/04/20 12:37:41;;;;;;;10.93;8.97;;;17.10;99.90;;;;;;5063740;28;20823;-78
2021/04/20 12:40:09;;;;;;;10.30;9.17;;;17.20;99.90;;;;;;5060512;28;20503;-78
2021/04/20 12:42:39;;;;;;;14.40;9.77;;;17.10;99.90;;;;;;5060894;28;20449;-78
2021/04/20 12:45:10;;;;;;;13.97;10.20;;;17.10;99.90;;;;;;5060369;28;20504;-78
2021/04/20 12:47:38;;;;;;;14.07;9.60;;;17.20;99.90;;;;;;5061007;28;20456;-78
2021/04/20 12:50:08;;;;;;;14.50;8.83;;;17.20;99.90;;;;;;5061408;28;20449;-77
2021/04/20 12:52:36;;;;;;;12.00;8.50;;;16.90;99.90;;;;;;5060848;28;20473;-78
2021/04/20 12:55:06;;;;;;;9.90;8.80;;;17.30;99.90;;;;;;5061721;28;20856;-77
2021/04/20 12:57:35;;;;;;;10.10;7.83;;;17.20;99.90;;;;;;5064364;28;20446;-79